AIRPORT ID: X26

DATE: 2018-05-03 ZULU TIME: 22.55 LOCAL TIME: 18.55


METAR KX26 032255Z AUTO 08009G13KT 10SM 24/21 A3020

ALTIMETER: A3020 Q1023

DENSITY ALT: 800 Ft

WIND DIRECT: 80

WIND SPEED: 9 Gust

WIND CONDITIONS:

VISIBILTY: 10SM 9999M

TEMPERATURE: 76 F 24 C

DEW POINT: 70 F 21 C

HUMID: 83%

LCL: 1,000-3,000 feet

RADIO CHECK: 0

ADVISARIES: 46

GREETINGS: 9

CONVERSATIONS: 254